Time;durP1;ratioP1;P1;durP2;ratioP2;P2;SDS_P1;SDS_P2;PMS_P1;PMS_P2;Temp;Humidity;BMP_temperature;BMP_pressure;BME280_temperature;BME280_humidity;BME280_pressure;Samples;Min_cycle;Max_cycle;Signal;HPM_P1;HPM_P2
2023/06/17 00:02:02;;;;;;;9.40;5.15;;;;;;;;;;4916808;29;20039;-77
2023/06/17 00:04:27;;;;;;;9.60;5.30;;;;;;;;;;4937204;29;20114;-76
2023/06/17 00:06:53;;;;;;;7.82;5.57;;;;;;;;;;4929383;29;20027;-76
2023/06/17 00:09:19;;;;;;;8.27;6.10;;;;;;;;;;4943784;29;20119;-77
2023/06/17 00:11:45;;;;;;;10.32;6.05;;;;;;;;;;4922347;29;20027;-77
2023/06/17 00:14:11;;;;;;;9.18;5.85;;;;;;;;;;4932507;29;20493;-75
2023/06/17 00:16:43;;;;;;;8.20;5.32;;;;;;;;;;4938333;29;20078;-76
2023/06/17 00:19:15;;;;;;;7.95;5.03;;;;;;;;;;4944045;28;20036;-77
2023/06/17 00:21:42;;;;;;;10.68;5.45;;;;;;;;;;4916291;29;20379;-76
2023/06/17 00:24:07;;;;;;;11.55;5.22;;;;;;;;;;4949475;29;20469;-75
2023/06/17 00:26:33;;;;;;;10.93;5.35;;;;;;;;;;4941182;29;20020;-77
2023/06/17 00:28:58;;;;;;;7.63;5.25;;;;;;;;;;4931715;29;20035;-76
2023/06/17 00:31:24;;;;;;;8.73;5.50;;;;;;;;;;4930672;29;20447;-75
2023/06/17 00:33:50;;;;;;;11.85;5.43;;;;;;;;;;4925028;29;20501;-76
2023/06/17 00:36:15;;;;;;;8.82;5.70;;;;;;;;;;4935648;29;20035;-76
2023/06/17 00:38:41;;;;;;;10.43;5.78;;;;;;;;;;4924885;29;20050;-76
2023/06/17 00:41:06;;;;;;;14.35;5.85;;;;;;;;;;4947577;29;20028;-76
2023/06/17 00:43:32;;;;;;;11.30;5.63;;;;;;;;;;4948606;29;20035;-75
2023/06/17 00:45:58;;;;;;;15.50;5.90;;;;;;;;;;4904973;29;20035;-76
2023/06/17 00:48:24;;;;;;;14.68;6.13;;;;;;;;;;4921820;29;20039;-77
2023/06/17 00:50:50;;;;;;;12.60;5.88;;;;;;;;;;4929645;29;20035;-76
2023/06/17 00:53:16;;;;;;;9.93;5.78;;;;;;;;;;4938573;29;20046;-76
2023/06/17 00:55:42;;;;;;;9.32;6.07;;;;;;;;;;4910071;29;20035;-76
2023/06/17 00:58:08;;;;;;;13.25;6.47;;;;;;;;;;4935200;29;20106;-76
2023/06/17 01:00:33;;;;;;;15.00;5.75;;;;;;;;;;4923641;29;20042;-75
2023/06/17 01:03:01;;;;;;;12.75;6.05;;;;;;;;;;4931217;29;20062;-76
2023/06/17 01:05:27;;;;;;;9.30;6.15;;;;;;;;;;4930719;29;20051;-76
2023/06/17 01:07:56;;;;;;;11.43;7.50;;;;;;;;;;4892755;29;20040;-77
2023/06/17 01:10:23;;;;;;;10.77;5.57;;;;;;;;;;4919179;29;20038;-77
2023/06/17 01:12:50;;;;;;;12.00;6.75;;;;;;;;;;4894260;29;20039;-76
2023/06/17 01:15:16;;;;;;;13.18;6.13;;;;;;;;;;4928640;29;20492;-75
2023/06/17 01:17:46;;;;;;;8.85;6.47;;;;;;;;;;4916386;29;20129;-77
2023/06/17 01:20:15;;;;;;;10.15;6.10;;;;;;;;;;4922495;29;20031;-76
2023/06/17 01:22:41;;;;;;;8.68;6.10;;;;;;;;;;4934097;29;20535;-77
2023/06/17 01:25:06;;;;;;;11.77;6.32;;;;;;;;;;4938274;29;20024;-76
2023/06/17 01:27:33;;;;;;;8.90;5.82;;;;;;;;;;4910275;29;20032;-76
2023/06/17 01:29:59;;;;;;;10.07;6.82;;;;;;;;;;4922550;29;20038;-77
2023/06/17 01:32:26;;;;;;;14.68;6.80;;;;;;;;;;4890703;29;20357;-78
2023/06/17 01:34:52;;;;;;;10.43;6.35;;;;;;;;;;4930601;29;20028;-76
2023/06/17 01:37:23;;;;;;;8.93;6.53;;;;;;;;;;4913047;28;20031;-77
2023/06/17 01:39:49;;;;;;;11.25;7.13;;;;;;;;;;4924198;29;20509;-77
2023/06/17 01:42:20;;;;;;;10.45;6.72;;;;;;;;;;4934354;29;20114;-75
2023/06/17 01:44:47;;;;;;;8.60;6.55;;;;;;;;;;4924414;29;20030;-75
2023/06/17 01:47:12;;;;;;;11.95;6.90;;;;;;;;;;4897256;29;20122;-78
2023/06/17 01:49:38;;;;;;;14.88;7.95;;;;;;;;;;4942401;29;20060;-77
2023/06/17 01:52:04;;;;;;;11.60;7.30;;;;;;;;;;4934505;29;20041;-77
2023/06/17 01:54:30;;;;;;;12.18;7.68;;;;;;;;;;4939061;29;20038;-77
2023/06/17 01:56:56;;;;;;;12.70;7.22;;;;;;;;;;4914830;29;20073;-77
2023/06/17 01:59:21;;;;;;;10.88;6.82;;;;;;;;;;4890866;29;20063;-78
2023/06/17 02:01:47;;;;;;;9.20;6.03;;;;;;;;;;4942680;29;20508;-77
2023/06/17 02:04:12;;;;;;;9.30;6.88;;;;;;;;;;4921765;29;20511;-79
2023/06/17 02:06:39;;;;;;;13.77;7.22;;;;;;;;;;4932703;29;20086;-78
2023/06/17 02:09:05;;;;;;;13.18;7.65;;;;;;;;;;4943588;29;20448;-77
2023/06/17 02:11:31;;;;;;;9.23;6.60;;;;;;;;;;4925539;29;20039;-77
2023/06/17 02:13:56;;;;;;;15.13;8.40;;;;;;;;;;4933345;29;20023;-77
2023/06/17 02:16:22;;;;;;;13.95;7.25;;;;;;;;;;4921592;29;20494;-78
2023/06/17 02:18:52;;;;;;;11.50;7.13;;;;;;;;;;4915415;29;20066;-79
2023/06/17 02:21:17;;;;;;;15.43;7.85;;;;;;;;;;4927990;29;20031;-79
2023/06/17 02:23:48;;;;;;;14.50;7.28;;;;;;;;;;4920736;29;20127;-79
2023/06/17 02:26:15;;;;;;;15.52;8.30;;;;;;;;;;4949221;29;20040;-79
2023/06/17 02:28:42;;;;;;;13.50;7.70;;;;;;;;;;4940113;29;20035;-77
2023/06/17 02:31:08;;;;;;;11.85;8.45;;;;;;;;;;4928423;29;20070;-78
2023/06/17 02:33:34;;;;;;;11.70;7.45;;;;;;;;;;4918633;29;20119;-79
2023/06/17 02:36:00;;;;;;;12.82;7.25;;;;;;;;;;4929973;29;20063;-77
2023/06/17 02:38:26;;;;;;;9.00;6.90;;;;;;;;;;4950493;28;20023;-78
2023/06/17 02:40:52;;;;;;;13.80;7.38;;;;;;;;;;4908588;29;20031;-78
2023/06/17 02:43:18;;;;;;;12.07;7.63;;;;;;;;;;4927067;29;20379;-77
2023/06/17 02:45:44;;;;;;;12.93;6.93;;;;;;;;;;4930852;29;20124;-77
2023/06/17 02:48:11;;;;;;;9.50;6.63;;;;;;;;;;4920798;29;20449;-79
2023/06/17 02:50:37;;;;;;;10.93;7.30;;;;;;;;;;4932183;29;20493;-78
2023/06/17 02:53:04;;;;;;;12.65;7.18;;;;;;;;;;4942491;29;20377;-79
2023/06/17 02:55:30;;;;;;;12.63;7.30;;;;;;;;;;4925279;29;20270;-78
2023/06/17 02:57:58;;;;;;;11.30;7.83;;;;;;;;;;4916584;29;20035;-79
2023/06/17 03:00:28;;;;;;;11.20;6.93;;;;;;;;;;4920875;29;20340;-77
2023/06/17 03:02:54;;;;;;;11.10;7.75;;;;;;;;;;4929845;29;20115;-78
2023/06/17 03:05:22;;;;;;;10.90;7.45;;;;;;;;;;4896700;29;20114;-79
2023/06/17 03:07:48;;;;;;;11.02;7.55;;;;;;;;;;4922588;29;20036;-76
2023/06/17 03:10:15;;;;;;;13.20;7.65;;;;;;;;;;4950186;29;20023;-77
2023/06/17 03:12:45;;;;;;;10.77;7.65;;;;;;;;;;4892771;29;20114;-78
2023/06/17 03:15:13;;;;;;;9.82;7.22;;;;;;;;;;4927519;29;20150;-79
2023/06/17 03:17:39;;;;;;;16.38;7.03;;;;;;;;;;4898812;29;20485;-75
2023/06/17 03:20:08;;;;;;;10.93;7.50;;;;;;;;;;4920915;29;20126;-76
2023/06/17 03:22:34;;;;;;;15.10;7.40;;;;;;;;;;4899007;29;20082;-78
2023/06/17 03:25:00;;;;;;;11.20;7.75;;;;;;;;;;4897465;29;20432;-77
2023/06/17 03:27:27;;;;;;;10.30;7.22;;;;;;;;;;4928342;28;20038;-77
2023/06/17 03:29:54;;;;;;;14.82;7.25;;;;;;;;;;4921461;29;20267;-76
2023/06/17 03:32:19;;;;;;;11.35;7.53;;;;;;;;;;4920222;29;20452;-76
2023/06/17 03:34:45;;;;;;;10.55;7.30;;;;;;;;;;4922830;29;20555;-76
2023/06/17 03:37:12;;;;;;;13.70;7.85;;;;;;;;;;4911585;29;20040;-77
2023/06/17 03:39:37;;;;;;;14.13;8.68;;;;;;;;;;4936762;29;20043;-78
2023/06/17 03:42:04;;;;;;;11.80;7.55;;;;;;;;;;4932728;29;20038;-77
2023/06/17 03:44:30;;;;;;;11.25;7.47;;;;;;;;;;4920813;29;20024;-75
2023/06/17 03:46:57;;;;;;;11.65;7.13;;;;;;;;;;4929294;29;20070;-76
2023/06/17 03:49:22;;;;;;;11.32;7.35;;;;;;;;;;4927165;29;20054;-78
2023/06/17 03:51:48;;;;;;;12.95;7.30;;;;;;;;;;4922284;29;20044;-76
2023/06/17 03:54:14;;;;;;;10.27;7.32;;;;;;;;;;4932717;29;20038;-76
2023/06/17 03:56:41;;;;;;;11.27;7.72;;;;;;;;;;4921942;29;20114;-77
2023/06/17 03:59:08;;;;;;;17.52;8.18;;;;;;;;;;4930320;29;20035;-76
2023/06/17 04:01:35;;;;;;;13.60;7.40;;;;;;;;;;4928378;29;20485;-78
2023/06/17 04:04:01;;;;;;;23.65;7.50;;;;;;;;;;4920249;29;20027;-78
2023/06/17 04:06:26;;;;;;;14.43;7.63;;;;;;;;;;4923847;29;20094;-78
2023/06/17 04:08:53;;;;;;;10.57;7.25;;;;;;;;;;4917308;29;20123;-77
2023/06/17 04:11:18;;;;;;;11.88;7.18;;;;;;;;;;4930518;29;20036;-77
2023/06/17 04:13:44;;;;;;;10.60;6.80;;;;;;;;;;4943188;29;20036;-76
2023/06/17 04:16:09;;;;;;;12.00;7.40;;;;;;;;;;4904949;29;20393;-75
2023/06/17 04:18:35;;;;;;;14.52;7.20;;;;;;;;;;4941504;29;20209;-76
2023/06/17 04:21:01;;;;;;;15.25;7.68;;;;;;;;;;4916006;29;20401;-75
2023/06/17 04:23:29;;;;;;;11.98;7.07;;;;;;;;;;4916334;29;20063;-75
2023/06/17 04:25:56;;;;;;;10.15;7.10;;;;;;;;;;4924399;29;20067;-76
2023/06/17 04:28:23;;;;;;;10.15;7.15;;;;;;;;;;4938039;29;20035;-75
2023/06/17 04:30:51;;;;;;;13.38;7.38;;;;;;;;;;4882380;29;20394;-75
2023/06/17 04:33:17;;;;;;;12.13;7.60;;;;;;;;;;4929414;29;20031;-76
2023/06/17 04:35:44;;;;;;;10.65;7.32;;;;;;;;;;4933227;29;20378;-74
2023/06/17 04:38:11;;;;;;;9.85;7.15;;;;;;;;;;4923286;29;20032;-74
2023/06/17 04:40:38;;;;;;;10.73;7.43;;;;;;;;;;4934494;29;20151;-75
2023/06/17 04:43:04;;;;;;;11.13;7.28;;;;;;;;;;4896937;29;20118;-76
2023/06/17 04:45:31;;;;;;;11.60;7.88;;;;;;;;;;4911659;29;20118;-76
2023/06/17 04:48:03;;;;;;;12.90;7.73;;;;;;;;;;4951424;23;20124;-89
2023/06/17 04:50:29;;;;;;;12.35;7.28;;;;;;;;;;4949378;28;20039;-90
2023/06/17 04:53:03;;;;;;;10.70;7.90;;;;;;;;;;4958196;28;20087;-89
2023/06/17 04:55:30;;;;;;;12.05;7.75;;;;;;;;;;4956731;28;20115;-89
2023/06/17 04:57:56;;;;;;;12.20;7.28;;;;;;;;;;4949334;29;20035;-92
2023/06/17 05:00:36;;;;;;;10.60;7.88;;;;;;;;;;4899021;29;20505;-92
2023/06/17 05:03:02;;;;;;;12.73;7.00;;;;;;;;;;4898871;29;20047;-90
2023/06/17 05:05:27;;;;;;;9.07;6.63;;;;;;;;;;4941806;29;20464;-91
2023/06/17 05:07:53;;;;;;;12.15;7.32;;;;;;;;;;4926807;29;20032;-91
2023/06/17 05:10:19;;;;;;;9.90;7.03;;;;;;;;;;4881895;29;20512;-91
2023/06/17 05:12:45;;;;;;;11.68;7.43;;;;;;;;;;4936004;29;20063;-91
2023/06/17 05:15:10;;;;;;;10.32;7.05;;;;;;;;;;4906238;29;20042;-91
2023/06/17 05:17:37;;;;;;;10.77;7.22;;;;;;;;;;4902405;29;20067;-92
2023/06/17 05:20:03;;;;;;;12.48;7.05;;;;;;;;;;4887880;29;20062;-91
2023/06/17 05:22:30;;;;;;;13.13;6.88;;;;;;;;;;4918091;29;20116;-92
2023/06/17 05:24:56;;;;;;;11.30;7.32;;;;;;;;;;4931813;29;20071;-92
2023/06/17 05:27:23;;;;;;;13.95;8.00;;;;;;;;;;4898172;29;20027;-92
2023/06/17 05:29:50;;;;;;;11.63;6.90;;;;;;;;;;4905643;29;20067;-91
2023/06/17 05:32:17;;;;;;;9.07;7.18;;;;;;;;;;4921920;29;20038;-91
2023/06/17 05:34:43;;;;;;;12.75;7.55;;;;;;;;;;4927463;29;20032;-90
2023/06/17 05:37:09;;;;;;;12.23;7.53;;;;;;;;;;4957746;29;20444;-89
2023/06/17 05:39:34;;;;;;;14.88;7.50;;;;;;;;;;4927183;29;20035;-90
2023/06/17 05:42:00;;;;;;;10.90;7.22;;;;;;;;;;4920319;29;20548;-89
2023/06/17 05:44:30;;;;;;;10.20;7.55;;;;;;;;;;4920735;29;20052;-90
2023/06/17 05:46:56;;;;;;;12.80;7.18;;;;;;;;;;4912195;29;20031;-90
2023/06/17 05:49:21;;;;;;;10.48;7.35;;;;;;;;;;4913973;29;20047;-89
2023/06/17 05:51:47;;;;;;;12.35;6.68;;;;;;;;;;4920552;29;20033;-91
2023/06/17 05:54:13;;;;;;;15.07;6.95;;;;;;;;;;4929703;29;20482;-90
2023/06/17 05:56:39;;;;;;;12.48;7.90;;;;;;;;;;4918519;29;20040;-89
2023/06/17 05:59:06;;;;;;;12.52;7.68;;;;;;;;;;4919757;29;20031;-90
2023/06/17 06:01:34;;;;;;;11.88;7.07;;;;;;;;;;4900653;29;20489;-90
2023/06/17 06:04:00;;;;;;;14.82;7.65;;;;;;;;;;4907893;29;20114;-89
2023/06/17 06:06:26;;;;;;;13.20;8.02;;;;;;;;;;4928510;29;20109;-89
2023/06/17 06:08:51;;;;;;;11.55;8.70;;;;;;;;;;4949112;28;20077;-90
2023/06/17 06:11:17;;;;;;;16.55;8.18;;;;;;;;;;4889233;29;20043;-91
2023/06/17 06:13:43;;;;;;;13.45;8.13;;;;;;;;;;4920292;29;20553;-91
2023/06/17 06:16:09;;;;;;;14.43;8.25;;;;;;;;;;4905771;29;20031;-90
2023/06/17 06:18:35;;;;;;;12.25;7.50;;;;;;;;;;4935454;29;20036;-89
2023/06/17 06:21:00;;;;;;;13.75;7.53;;;;;;;;;;4928453;29;20031;-90
2023/06/17 06:23:26;;;;;;;15.55;8.13;;;;;;;;;;4933223;29;20038;-89
2023/06/17 06:25:54;;;;;;;12.52;8.45;;;;;;;;;;4953750;29;20034;-87
2023/06/17 06:28:20;;;;;;;14.55;9.05;;;;;;;;;;4961125;29;20042;-89
2023/06/17 06:30:47;;;;;;;12.18;8.25;;;;;;;;;;4924107;29;20111;-89
2023/06/17 06:33:12;;;;;;;12.07;8.20;;;;;;;;;;4933788;28;20066;-87
2023/06/17 06:35:38;;;;;;;12.25;8.80;;;;;;;;;;4947061;29;20047;-89
2023/06/17 06:38:06;;;;;;;14.18;9.15;;;;;;;;;;4956921;29;20043;-89
2023/06/17 06:40:32;;;;;;;16.35;8.95;;;;;;;;;;4936988;29;20023;-90
2023/06/17 06:42:59;;;;;;;16.23;9.38;;;;;;;;;;4947652;29;20472;-90
2023/06/17 06:45:36;;;;;;;16.13;10.05;;;;;;;;;;4915718;29;20032;-89
2023/06/17 06:48:02;;;;;;;18.52;11.25;;;;;;;;;;4906694;29;20518;-90
2023/06/17 06:50:28;;;;;;;15.30;9.05;;;;;;;;;;4889782;29;20038;-90
2023/06/17 06:52:55;;;;;;;14.20;9.82;;;;;;;;;;4890074;29;20485;-89
2023/06/17 06:55:23;;;;;;;16.07;10.40;;;;;;;;;;4905848;29;20070;-90
2023/06/17 06:57:51;;;;;;;17.92;10.82;;;;;;;;;;4935646;29;20078;-89
2023/06/17 07:00:17;;;;;;;16.65;11.40;;;;;;;;;;4935124;29;20401;-89
2023/06/17 07:02:44;;;;;;;13.50;9.48;;;;;;;;;;4901509;29;20098;-88
2023/06/17 07:05:10;;;;;;;18.42;11.13;;;;;;;;;;4940196;29;20035;-87
2023/06/17 07:07:41;;;;;;;16.83;10.57;;;;;;;;;;4937684;29;20054;-87
2023/06/17 07:10:07;;;;;;;16.90;10.75;;;;;;;;;;4945219;29;20028;-85
2023/06/17 07:12:33;;;;;;;13.38;9.70;;;;;;;;;;4933449;29;20031;-87
2023/06/17 07:14:59;;;;;;;16.35;9.82;;;;;;;;;;4921998;29;20447;-87
2023/06/17 07:17:25;;;;;;;15.45;10.10;;;;;;;;;;4934495;29;20473;-86
2023/06/17 07:19:51;;;;;;;14.88;10.77;;;;;;;;;;4941086;28;20032;-87
2023/06/17 07:22:16;;;;;;;17.38;11.00;;;;;;;;;;4953994;29;20063;-87
2023/06/17 07:24:42;;;;;;;16.50;12.10;;;;;;;;;;4945494;29;20020;-86
2023/06/17 07:27:07;;;;;;;18.88;12.23;;;;;;;;;;4937253;29;20027;-87
2023/06/17 07:29:33;;;;;;;21.85;12.55;;;;;;;;;;4936330;29;20056;-88
2023/06/17 07:31:59;;;;;;;15.88;10.70;;;;;;;;;;4940358;29;20050;-89
2023/06/17 07:34:25;;;;;;;17.75;10.80;;;;;;;;;;4927207;29;20035;-88
2023/06/17 07:36:52;;;;;;;19.60;11.25;;;;;;;;;;4913740;29;20126;-87
2023/06/17 07:39:19;;;;;;;21.80;14.43;;;;;;;;;;4898041;29;20454;-87
2023/06/17 07:41:45;;;;;;;20.25;14.48;;;;;;;;;;4936935;29;20027;-88
2023/06/17 07:44:10;;;;;;;20.25;14.32;;;;;;;;;;4910178;29;20114;-88
2023/06/17 07:46:36;;;;;;;21.30;13.85;;;;;;;;;;4927873;29;20035;-89
2023/06/17 07:49:01;;;;;;;23.08;13.93;;;;;;;;;;4902995;29;20342;-89
2023/06/17 07:51:27;;;;;;;21.52;13.48;;;;;;;;;;4904908;29;20047;-88
2023/06/17 07:53:53;;;;;;;20.77;13.65;;;;;;;;;;4928799;29;20031;-89
2023/06/17 07:56:18;;;;;;;17.23;13.30;;;;;;;;;;4891096;29;20032;-88
2023/06/17 07:58:44;;;;;;;19.75;13.05;;;;;;;;;;4895953;29;20389;-89
2023/06/17 08:01:10;;;;;;;20.63;13.45;;;;;;;;;;4932169;29;20035;-88
2023/06/17 08:03:44;;;;;;;19.15;12.57;;;;;;;;;;4905720;29;20038;-90
2023/06/17 08:06:13;;;;;;;18.83;12.65;;;;;;;;;;4894156;29;20044;-90
2023/06/17 08:08:43;;;;;;;17.13;11.68;;;;;;;;;;4936931;29;20027;-90
2023/06/17 08:11:08;;;;;;;19.02;12.25;;;;;;;;;;4896301;29;20046;-89
2023/06/17 08:13:34;;;;;;;16.77;11.88;;;;;;;;;;4922682;29;20043;-89
2023/06/17 08:16:00;;;;;;;17.55;12.18;;;;;;;;;;4922447;29;20032;-89
2023/06/17 08:18:28;;;;;;;22.13;11.98;;;;;;;;;;4894244;29;20035;-89
2023/06/17 08:20:54;;;;;;;18.20;12.18;;;;;;;;;;4903249;29;20122;-90
2023/06/17 08:23:20;;;;;;;17.75;11.15;;;;;;;;;;4910198;29;20063;-91
2023/06/17 08:25:46;;;;;;;16.33;11.07;;;;;;;;;;4910689;29;20039;-90
2023/06/17 08:28:12;;;;;;;20.13;12.18;;;;;;;;;;4909242;29;20432;-89
2023/06/17 08:30:38;;;;;;;13.48;10.50;;;;;;;;;;4941963;29;20050;-90
2023/06/17 08:33:04;;;;;;;17.27;10.60;;;;;;;;;;4910948;29;20050;-89
2023/06/17 08:35:30;;;;;;;14.80;10.38;;;;;;;;;;4911275;29;20038;-90
2023/06/17 08:37:55;;;;;;;15.70;9.77;;;;;;;;;;4910525;29;20420;-90
2023/06/17 08:40:25;;;;;;;18.90;11.70;;;;;;;;;;4909533;29;20119;-89
2023/06/17 08:42:55;;;;;;;13.55;10.18;;;;;;;;;;4942125;29;20034;-87
2023/06/17 08:45:21;;;;;;;18.10;10.70;;;;;;;;;;4959811;29;20049;-89
2023/06/17 08:47:50;;;;;;;21.92;12.20;;;;;;;;;;4913869;29;20035;-89
2023/06/17 08:50:16;;;;;;;16.58;11.23;;;;;;;;;;4956278;29;20032;-87
2023/06/17 08:52:42;;;;;;;18.02;11.20;;;;;;;;;;4955671;28;20031;-88
2023/06/17 08:55:08;;;;;;;17.42;11.43;;;;;;;;;;4915684;29;20043;-87
2023/06/17 08:57:34;;;;;;;14.25;9.50;;;;;;;;;;4914860;29;20136;-86
2023/06/17 08:59:59;;;;;;;17.05;9.48;;;;;;;;;;4952926;29;20389;-90
2023/06/17 09:02:26;;;;;;;13.93;9.43;;;;;;;;;;4917292;29;20050;-89
2023/06/17 09:04:52;;;;;;;13.63;8.43;;;;;;;;;;4905509;29;20031;-91
2023/06/17 09:07:18;;;;;;;13.32;9.48;;;;;;;;;;4929750;29;20083;-89
2023/06/17 09:09:48;;;;;;;13.85;8.85;;;;;;;;;;4932203;29;20045;-88
2023/06/17 09:12:14;;;;;;;13.98;7.80;;;;;;;;;;4943441;29;20054;-90
2023/06/17 09:14:42;;;;;;;13.77;7.95;;;;;;;;;;4911014;29;20504;-89
2023/06/17 09:17:08;;;;;;;;;;;;;;;;;;4912685;29;20036;-87
2023/06/17 09:19:39;;;;;;;13.73;7.88;;;;;;;;;;4926426;29;19914;-87
2023/06/17 09:22:06;;;;;;;10.93;7.82;;;;;;;;;;4942385;29;20484;-89
2023/06/17 09:24:32;;;;;;;13.52;6.82;;;;;;;;;;4907040;29;20087;-89
2023/06/17 09:26:57;;;;;;;9.70;6.90;;;;;;;;;;4896729;29;20031;-89
2023/06/17 09:29:23;;;;;;;16.00;8.20;;;;;;;;;;4926404;29;20066;-90
2023/06/17 09:31:53;;;;;;;13.30;8.77;;;;;;;;;;4927362;29;20032;-89
2023/06/17 09:34:19;;;;;;;13.93;8.10;;;;;;;;;;4894169;29;20031;-89
2023/06/17 09:36:46;;;;;;;12.93;7.90;;;;;;;;;;4894435;29;20086;-90
2023/06/17 09:39:12;;;;;;;14.20;8.35;;;;;;;;;;4909556;29;20042;-88
2023/06/17 09:41:42;;;;;;;11.43;7.32;;;;;;;;;;4942419;29;20055;-89
2023/06/17 09:44:08;;;;;;;11.00;7.10;;;;;;;;;;4939386;29;20075;-89
2023/06/17 09:46:46;;;;;;;11.23;7.05;;;;;;;;;;4908798;29;20019;-90
2023/06/17 09:49:15;;;;;;;11.60;6.63;;;;;;;;;;4908459;29;20043;-89
2023/06/17 09:51:41;;;;;;;13.20;7.38;;;;;;;;;;4893258;29;20275;-89
2023/06/17 09:54:10;;;;;;;12.93;7.65;;;;;;;;;;4924748;28;20027;-87
2023/06/17 09:56:37;;;;;;;12.70;7.15;;;;;;;;;;4912455;29;20059;-88
2023/06/17 09:59:03;;;;;;;11.75;6.63;;;;;;;;;;4917863;29;20034;-87
2023/06/17 10:01:32;;;;;;;10.98;7.30;;;;;;;;;;4919786;28;20028;-88
2023/06/17 10:03:59;;;;;;;9.55;6.35;;;;;;;;;;4927166;29;20019;-88
2023/06/17 10:06:26;;;;;;;12.32;5.72;;;;;;;;;;4939905;29;20019;-89
2023/06/17 10:08:52;;;;;;;10.77;6.25;;;;;;;;;;4912875;29;20036;-89
2023/06/17 10:11:19;;;;;;;12.05;6.72;;;;;;;;;;4892471;29;20062;-90
2023/06/17 10:13:47;;;;;;;10.00;6.43;;;;;;;;;;4938736;29;20046;-88
2023/06/17 10:16:13;;;;;;;;;;;;;;;;;;4906445;29;20540;-88
2023/06/17 10:18:39;;;;;;;12.32;6.50;;;;;;;;;;4911242;29;20010;-89
2023/06/17 10:21:06;;;;;;;9.30;5.82;;;;;;;;;;4905052;29;20063;-91
2023/06/17 10:23:34;;;;;;;11.35;5.97;;;;;;;;;;4905291;29;20028;-89
2023/06/17 10:26:04;;;;;;;9.65;5.50;;;;;;;;;;4920484;29;20031;-89
2023/06/17 10:28:49;;;;;;;7.60;4.70;;;;;;;;;;4924407;29;20039;-89
2023/06/17 10:31:26;;;;;;;11.35;5.93;;;;;;;;;;4900550;29;20047;-89
2023/06/17 10:33:52;;;;;;;13.35;5.40;;;;;;;;;;4893237;29;20043;-91
2023/06/17 10:36:22;;;;;;;10.57;5.47;;;;;;;;;;4905832;29;20039;-89
2023/06/17 10:38:57;;;;;;;8.63;5.07;;;;;;;;;;4901803;29;20031;-89
2023/06/17 10:41:57;;;;;;;10.00;5.55;;;;;;;;;;4889124;29;20078;-89
2023/06/17 10:44:35;;;;;;;10.32;5.88;;;;;;;;;;4888596;29;20031;-89
2023/06/17 10:47:01;;;;;;;14.15;6.20;;;;;;;;;;4889000;29;20118;-89
2023/06/17 10:49:38;;;;;;;12.20;5.50;;;;;;;;;;4910670;23;20051;-79
2023/06/17 10:52:04;;;;;;;9.00;5.40;;;;;;;;;;4950014;29;20089;-78
2023/06/17 10:54:30;;;;;;;8.90;5.45;;;;;;;;;;4921299;29;20783;-79
2023/06/17 10:56:56;;;;;;;11.32;4.57;;;;;;;;;;4946505;29;20028;-79
2023/06/17 10:59:28;;;;;;;8.05;4.53;;;;;;;;;;4917506;29;20086;-78
2023/06/17 11:02:04;;;;;;;6.53;4.53;;;;;;;;;;4934245;29;20031;-79
2023/06/17 11:04:34;;;;;;;9.55;4.47;;;;;;;;;;4886833;29;20024;-79
2023/06/17 11:07:00;;;;;;;11.02;4.72;;;;;;;;;;4916916;29;20401;-79
2023/06/17 11:09:26;;;;;;;8.50;4.70;;;;;;;;;;4917171;29;20381;-79
2023/06/17 11:11:55;;;;;;;8.02;4.55;;;;;;;;;;4917269;29;20524;-78
2023/06/17 11:14:21;;;;;;;6.40;3.92;;;;;;;;;;4914264;29;20488;-80
2023/06/17 11:16:48;;;;;;;15.25;5.13;;;;;;;;;;4917211;29;20481;-79
2023/06/17 11:19:14;;;;;;;11.65;4.90;;;;;;;;;;4916804;29;20036;-78
2023/06/17 11:21:40;;;;;;;11.65;5.10;;;;;;;;;;4906006;29;20036;-79
2023/06/17 11:24:06;;;;;;;10.82;4.47;;;;;;;;;;4910995;29;20027;-80
2023/06/17 11:26:32;;;;;;;9.90;4.20;;;;;;;;;;4934178;29;20059;-78
2023/06/17 11:28:58;;;;;;;6.55;4.28;;;;;;;;;;4933932;29;20031;-80
2023/06/17 11:31:25;;;;;;;8.48;4.65;;;;;;;;;;4933764;29;20036;-81
2023/06/17 11:34:00;;;;;;;8.52;3.90;;;;;;;;;;4934065;29;20028;-79
2023/06/17 11:36:26;;;;;;;8.63;4.47;;;;;;;;;;4934487;29;20137;-78
2023/06/17 11:38:55;;;;;;;6.80;3.95;;;;;;;;;;4917200;29;20512;-78
2023/06/17 11:41:24;;;;;;;7.28;4.55;;;;;;;;;;4917120;29;20556;-78
2023/06/17 11:43:50;;;;;;;8.68;4.20;;;;;;;;;;4934451;29;20572;-78
2023/06/17 11:46:20;;;;;;;7.45;3.85;;;;;;;;;;4933998;29;20035;-80
2023/06/17 11:48:46;;;;;;;6.80;3.90;;;;;;;;;;4934103;29;20059;-80
2023/06/17 11:51:18;;;;;;;9.32;4.70;;;;;;;;;;4913867;29;20036;-79
2023/06/17 11:53:45;;;;;;;7.05;3.97;;;;;;;;;;4885599;29;20046;-79
2023/06/17 11:56:11;;;;;;;6.88;4.18;;;;;;;;;;4916764;29;20032;-79
2023/06/17 11:58:39;;;;;;;6.07;4.05;;;;;;;;;;4933970;29;20028;-79
2023/06/17 12:01:05;;;;;;;5.45;3.60;;;;;;;;;;4901437;29;20512;-79
2023/06/17 12:03:31;;;;;;;6.68;3.63;;;;;;;;;;4933689;29;20032;-79
2023/06/17 12:05:57;;;;;;;5.22;3.53;;;;;;;;;;4916679;29;20032;-79
2023/06/17 12:08:24;;;;;;;6.40;3.55;;;;;;;;;;4933923;29;20113;-79
2023/06/17 12:10:49;;;;;;;7.68;4.40;;;;;;;;;;4917312;29;20110;-79
2023/06/17 12:13:16;;;;;;;8.95;4.30;;;;;;;;;;4917658;29;20179;-79
2023/06/17 12:15:42;;;;;;;5.57;3.70;;;;;;;;;;4913881;29;20036;-79
2023/06/17 12:18:09;;;;;;;4.97;3.60;;;;;;;;;;4932097;29;20118;-79
2023/06/17 12:20:35;;;;;;;6.93;3.58;;;;;;;;;;4930037;29;20035;-79
2023/06/17 12:23:01;;;;;;;4.93;3.05;;;;;;;;;;4912571;29;20122;-80
2023/06/17 12:25:26;;;;;;;7.07;3.58;;;;;;;;;;4937622;29;20051;-77
2023/06/17 12:27:52;;;;;;;6.60;3.17;;;;;;;;;;4918294;29;20032;-78
2023/06/17 12:30:18;;;;;;;6.88;3.85;;;;;;;;;;4905224;29;20028;-79
2023/06/17 12:32:47;;;;;;;7.60;4.00;;;;;;;;;;4937192;29;20247;-81
2023/06/17 12:35:14;;;;;;;5.60;3.20;;;;;;;;;;4920428;29;20068;-79
2023/06/17 12:37:40;;;;;;;13.57;3.70;;;;;;;;;;4920394;29;20032;-78
2023/06/17 12:40:07;;;;;;;6.78;3.40;;;;;;;;;;4937391;29;20073;-79
2023/06/17 12:42:33;;;;;;;5.43;3.85;;;;;;;;;;4938472;29;20043;-79
2023/06/17 12:44:58;;;;;;;13.73;3.42;;;;;;;;;;4937924;29;20032;-76
2023/06/17 12:47:25;;;;;;;6.32;3.58;;;;;;;;;;4939920;29;20441;-80
2023/06/17 12:49:50;;;;;;;5.82;3.42;;;;;;;;;;4937646;29;20043;-78
2023/06/17 12:52:16;;;;;;;5.43;3.45;;;;;;;;;;4945102;29;20024;-77
2023/06/17 12:54:42;;;;;;;7.43;3.55;;;;;;;;;;4957488;29;20062;-79
2023/06/17 12:57:08;;;;;;;5.28;3.38;;;;;;;;;;4948361;29;20071;-78
2023/06/17 12:59:33;;;;;;;6.78;3.35;;;;;;;;;;4936404;29;20031;-78
2023/06/17 13:01:59;;;;;;;6.18;3.25;;;;;;;;;;4955227;29;20034;-78
2023/06/17 13:04:25;;;;;;;5.70;3.08;;;;;;;;;;4921031;29;20059;-78
2023/06/17 13:06:52;;;;;;;6.68;3.65;;;;;;;;;;4943061;29;20032;-78
2023/06/17 13:09:18;;;;;;;8.15;3.80;;;;;;;;;;4938292;29;20119;-78
2023/06/17 13:11:43;;;;;;;7.22;3.53;;;;;;;;;;4921371;29;20059;-77
2023/06/17 13:14:09;;;;;;;7.03;3.40;;;;;;;;;;4918981;29;20040;-79
2023/06/17 13:16:35;;;;;;;5.55;3.60;;;;;;;;;;4930232;29;20024;-77
2023/06/17 13:19:00;;;;;;;6.22;3.80;;;;;;;;;;4936233;29;20083;-78
2023/06/17 13:21:26;;;;;;;4.97;3.20;;;;;;;;;;4919080;29;20024;-78
2023/06/17 13:23:52;;;;;;;6.72;3.47;;;;;;;;;;4932613;29;20036;-77
2023/06/17 13:26:20;;;;;;;6.30;3.55;;;;;;;;;;4920788;29;20024;-79
2023/06/17 13:28:45;;;;;;;4.53;3.17;;;;;;;;;;4937811;29;20036;-78
2023/06/17 13:31:11;;;;;;;5.22;3.35;;;;;;;;;;4898582;29;20520;-79
2023/06/17 13:33:37;;;;;;;5.47;3.25;;;;;;;;;;4935709;29;20032;-80
2023/06/17 13:36:03;;;;;;;5.53;3.38;;;;;;;;;;4918726;29;20036;-78
2023/06/17 13:38:28;;;;;;;5.15;3.00;;;;;;;;;;4918639;29;20035;-78
2023/06/17 13:40:54;;;;;;;6.07;3.63;;;;;;;;;;4935400;29;20053;-78
2023/06/17 13:43:19;;;;;;;7.72;3.70;;;;;;;;;;4918678;29;20059;-78
2023/06/17 13:45:45;;;;;;;8.13;3.70;;;;;;;;;;5068088;23;20028;-72
2023/06/17 13:48:10;;;;;;;6.32;3.70;;;;;;;;;;4947293;29;20043;-80
2023/06/17 13:50:36;;;;;;;6.78;3.58;;;;;;;;;;4904034;29;20028;-81
2023/06/17 13:53:01;;;;;;;8.25;3.70;;;;;;;;;;4915905;29;20501;-81
2023/06/17 13:55:31;;;;;;;6.85;4.10;;;;;;;;;;4924377;29;20032;-80
2023/06/17 13:57:56;;;;;;;9.75;3.22;;;;;;;;;;4931356;29;20027;-80
2023/06/17 14:00:22;;;;;;;7.53;3.35;;;;;;;;;;4902749;29;20036;-80
2023/06/17 14:02:47;;;;;;;5.15;3.40;;;;;;;;;;4929310;29;20052;-81
2023/06/17 14:05:13;;;;;;;5.47;3.25;;;;;;;;;;4925422;29;20036;-81
2023/06/17 14:07:38;;;;;;;6.28;4.03;;;;;;;;;;4905678;29;20451;-81
2023/06/17 14:10:07;;;;;;;5.90;3.58;;;;;;;;;;4930663;29;20490;-80
2023/06/17 14:12:33;;;;;;;5.93;3.40;;;;;;;;;;4903163;29;20046;-81
2023/06/17 14:14:59;;;;;;;5.70;4.25;;;;;;;;;;4910865;29;20470;-80
2023/06/17 14:17:24;;;;;;;5.95;3.45;;;;;;;;;;4922426;29;20035;-81
2023/06/17 14:19:50;;;;;;;6.22;3.35;;;;;;;;;;4917964;29;20190;-81
2023/06/17 14:22:15;;;;;;;5.13;3.35;;;;;;;;;;4902202;29;20505;-79
2023/06/17 14:24:41;;;;;;;9.57;3.72;;;;;;;;;;4930110;29;20032;-80
2023/06/17 14:27:13;;;;;;;7.85;3.72;;;;;;;;;;4908010;29;20122;-80
2023/06/17 14:29:38;;;;;;;6.93;3.33;;;;;;;;;;4906337;29;20495;-80
2023/06/17 14:32:04;;;;;;;4.38;2.97;;;;;;;;;;4915252;29;20039;-80